Time;durP1;ratioP1;P1;durP2;ratioP2;P2;SDS_P1;SDS_P2;PMS_P1;PMS_P2;Temp;Humidity;BMP_temperature;BMP_pressure;BME280_temperature;BME280_humidity;BME280_pressure;Samples;Min_cycle;Max_cycle;Signal;HPM_P1;HPM_P2
2022/03/22 00:00:32;;;;;;;;;;;21.60;29.00;;;;;;484446;246;1074;-39
2022/03/22 00:02:33;;;;;;;;;;;21.50;29.00;;;;;;484272;246;1040;-39
2022/03/22 00:04:34;;;;;;;;;;;21.60;29.00;;;;;;484267;246;1070;-39
2022/03/22 00:06:35;;;;;;;;;;;21.60;29.10;;;;;;484575;246;1173;-39
2022/03/22 00:08:37;;;;;;;;;;;21.50;29.10;;;;;;484696;246;1054;-39
2022/03/22 00:10:38;;;;;;;;;;;21.60;29.10;;;;;;484568;246;1399;-39
2022/03/22 00:12:39;;;;;;;;;;;21.60;29.00;;;;;;484588;246;1109;-39
2022/03/22 00:14:44;;;;;;;;;;;21.60;29.10;;;;;;484669;246;1067;-39
2022/03/22 00:16:42;;;;;;;;;;;21.50;29.00;;;;;;484020;246;2276;-39
2022/03/22 00:18:43;;;;;;;;;;;21.60;29.00;;;;;;484514;246;2129;-39
2022/03/22 00:20:45;;;;;;;;;;;21.60;29.10;;;;;;484262;246;1082;-39
2022/03/22 00:22:48;;;;;;;;;;;21.60;29.00;;;;;;484683;246;1566;-39
2022/03/22 00:24:47;;;;;;;;;;;21.60;29.00;;;;;;484162;246;2284;-39
2022/03/22 00:26:49;;;;;;;;;;;21.60;29.00;;;;;;484328;246;1247;-39
2022/03/22 00:28:50;;;;;;;;;;;21.60;29.00;;;;;;484691;246;1016;-39
2022/03/22 00:30:52;;;;;;;;;;;21.60;29.00;;;;;;484580;246;1374;-39
2022/03/22 00:32:54;;;;;;;;;;;21.50;29.10;;;;;;484266;246;1949;-39
2022/03/22 00:34:54;;;;;;;;;;;21.60;29.10;;;;;;484175;246;2352;-39
2022/03/22 00:36:58;;;;;;;;;;;21.60;29.10;;;;;;484576;246;1150;-39
2022/03/22 00:38:57;;;;;;;;;;;21.60;29.00;;;;;;484101;246;2340;-40
2022/03/22 00:40:59;;;;;;;;;;;21.50;29.10;;;;;;484480;246;1198;-40
2022/03/22 00:43:00;;;;;;;;;;;21.50;29.10;;;;;;484678;246;1197;-39
2022/03/22 00:45:02;;;;;;;;;;;21.60;29.10;;;;;;484525;246;1059;-39
2022/03/22 00:47:03;;;;;;;;;;;21.60;29.00;;;;;;484217;246;1210;-39
2022/03/22 00:49:04;;;;;;;;;;;21.50;29.00;;;;;;484262;246;966;-39
2022/03/22 00:51:06;;;;;;;;;;;21.50;29.10;;;;;;484204;246;1702;-39
2022/03/22 00:53:07;;;;;;;;;;;21.50;29.10;;;;;;484271;246;1291;-39
2022/03/22 00:55:09;;;;;;;;;;;21.60;29.10;;;;;;484702;246;1117;-39
2022/03/22 00:57:10;;;;;;;;;;;21.50;29.10;;;;;;484363;246;1249;-39
2022/03/22 01:01:30;;;;;;;;;;;21.60;29.10;;;;;;484624;246;1060;-39
2022/03/22 01:03:32;;;;;;;;;;;21.50;29.10;;;;;;484258;246;1113;-39
2022/03/22 01:05:34;;;;;;;;;;;21.60;29.10;;;;;;484215;246;1059;-39
2022/03/22 01:07:35;;;;;;;;;;;21.60;29.10;;;;;;484209;246;1354;-39
2022/03/22 01:09:36;;;;;;;;;;;21.50;29.10;;;;;;484520;246;1037;-40
2022/03/22 01:11:39;;;;;;;;;;;21.50;29.10;;;;;;484416;246;1177;-39
2022/03/22 01:13:38;;;;;;;;;;;21.50;29.10;;;;;;484286;246;2205;-39
2022/03/22 01:15:42;;;;;;;;;;;21.60;29.10;;;;;;484687;246;952;-39
2022/03/22 01:17:41;;;;;;;;;;;21.50;29.10;;;;;;484036;246;1407;-39
2022/03/22 01:19:42;;;;;;;;;;;21.50;29.10;;;;;;484243;246;2180;-39
2022/03/22 01:21:44;;;;;;;;;;;21.50;29.10;;;;;;484515;246;1070;-39
2022/03/22 01:23:45;;;;;;;;;;;21.50;29.10;;;;;;484257;246;1077;-39
2022/03/22 01:25:48;;;;;;;;;;;21.60;29.10;;;;;;484693;246;1373;-39
2022/03/22 01:27:48;;;;;;;;;;;21.50;29.10;;;;;;484212;246;2112;-39
2022/03/22 01:29:49;;;;;;;;;;;21.60;29.10;;;;;;484260;246;1334;-39
2022/03/22 01:31:50;;;;;;;;;;;21.60;29.10;;;;;;484177;246;1305;-39
2022/03/22 01:33:52;;;;;;;;;;;21.60;29.10;;;;;;484610;246;1045;-39
2022/03/22 01:35:53;;;;;;;;;;;21.60;29.10;;;;;;484480;246;1095;-39
2022/03/22 01:37:54;;;;;;;;;;;21.60;29.10;;;;;;484660;246;1208;-39
2022/03/22 01:39:56;;;;;;;;;;;21.60;29.10;;;;;;484260;246;2187;-39
2022/03/22 01:41:57;;;;;;;;;;;21.60;29.10;;;;;;484177;246;1218;-39
2022/03/22 01:43:59;;;;;;;;;;;21.50;29.10;;;;;;484440;246;1059;-40
2022/03/22 01:46:00;;;;;;;;;;;21.50;29.10;;;;;;484259;246;1052;-40
2022/03/22 01:48:01;;;;;;;;;;;21.50;29.10;;;;;;484642;246;1231;-39
2022/03/22 01:50:02;;;;;;;;;;;21.60;29.10;;;;;;484229;246;1342;-39
2022/03/22 01:52:04;;;;;;;;;;;21.50;29.10;;;;;;484602;246;1344;-39
2022/03/22 01:54:05;;;;;;;;;;;21.60;29.10;;;;;;484226;246;1802;-39
2022/03/22 01:56:06;;;;;;;;;;;21.60;29.10;;;;;;484213;246;1192;-39
2022/03/22 01:58:08;;;;;;;;;;;21.50;29.10;;;;;;484234;246;1242;-39
2022/03/22 02:00:09;;;;;;;;;;;21.60;29.10;;;;;;484615;246;1068;-39
2022/03/22 02:06:49;;;;;;;;;;;21.50;29.10;;;;;;484623;246;1141;-39
2022/03/22 02:08:50;;;;;;;;;;;21.50;29.10;;;;;;484278;246;1226;-39
2022/03/22 02:10:51;;;;;;;;;;;21.50;29.10;;;;;;484300;246;959;-39
2022/03/22 02:12:52;;;;;;;;;;;21.50;29.10;;;;;;484257;246;1233;-39
2022/03/22 02:14:54;;;;;;;;;;;21.50;29.10;;;;;;484206;246;1188;-39
2022/03/22 02:16:55;;;;;;;;;;;21.60;29.10;;;;;;484207;246;1866;-39
2022/03/22 02:18:56;;;;;;;;;;;21.60;29.10;;;;;;484692;246;2108;-39
2022/03/22 02:20:58;;;;;;;;;;;21.50;29.10;;;;;;484238;246;1063;-39
2022/03/22 02:22:59;;;;;;;;;;;21.50;29.10;;;;;;484241;246;1050;-39
2022/03/22 02:25:00;;;;;;;;;;;21.50;29.10;;;;;;484707;246;1039;-39
2022/03/22 02:27:02;;;;;;;;;;;21.50;29.10;;;;;;484200;246;1316;-39
2022/03/22 02:29:03;;;;;;;;;;;21.50;29.10;;;;;;484695;246;1064;-39
2022/03/22 02:31:04;;;;;;;;;;;21.50;29.10;;;;;;484415;246;1121;-39
2022/03/22 02:33:06;;;;;;;;;;;21.50;29.10;;;;;;484185;246;1280;-39
2022/03/22 02:35:07;;;;;;;;;;;21.50;29.10;;;;;;484271;242;1204;-39
2022/03/22 02:37:08;;;;;;;;;;;21.50;29.10;;;;;;484459;246;1259;-39
2022/03/22 02:39:10;;;;;;;;;;;21.50;29.10;;;;;;484257;246;2124;-39
2022/03/22 02:41:11;;;;;;;;;;;21.50;29.10;;;;;;484292;246;981;-39
2022/03/22 02:43:12;;;;;;;;;;;21.50;29.10;;;;;;484263;246;1182;-39
2022/03/22 02:45:14;;;;;;;;;;;21.50;29.10;;;;;;484402;246;1144;-39
2022/03/22 02:47:15;;;;;;;;;;;21.50;29.10;;;;;;484197;246;1146;-39
2022/03/22 02:49:16;;;;;;;;;;;21.50;29.10;;;;;;484240;246;1254;-39
2022/03/22 02:51:17;;;;;;;;;;;21.40;29.10;;;;;;484606;246;1070;-39
2022/03/22 02:53:19;;;;;;;;;;;21.50;29.10;;;;;;484250;246;1065;-39
2022/03/22 02:55:21;;;;;;;;;;;21.50;29.10;;;;;;484572;246;1064;-39
2022/03/22 02:57:22;;;;;;;;;;;21.50;29.10;;;;;;484578;246;1284;-39
2022/03/22 02:59:23;;;;;;;;;;;21.50;29.10;;;;;;484220;246;2211;-39
2022/03/22 03:01:25;;;;;;;;;;;21.50;29.10;;;;;;484639;246;997;-39
2022/03/22 03:03:27;;;;;;;;;;;21.50;29.10;;;;;;484404;246;1032;-39
2022/03/22 03:05:27;;;;;;;;;;;21.50;29.10;;;;;;484552;246;2451;-40
2022/03/22 03:07:29;;;;;;;;;;;21.50;29.10;;;;;;484373;246;1011;-39
2022/03/22 03:09:30;;;;;;;;;;;21.50;29.10;;;;;;484206;246;1058;-39
2022/03/22 03:11:31;;;;;;;;;;;21.50;29.10;;;;;;484406;246;1549;-39
2022/03/22 03:15:53;;;;;;;;;;;21.50;29.10;;;;;;484206;245;1421;-39
2022/03/22 03:17:54;;;;;;;;;;;21.50;29.10;;;;;;484267;246;1360;-40
2022/03/22 03:19:56;;;;;;;;;;;21.50;29.10;;;;;;484264;246;2195;-39
2022/03/22 03:21:57;;;;;;;;;;;21.50;29.10;;;;;;484476;246;1312;-39
2022/03/22 03:23:58;;;;;;;;;;;21.60;29.10;;;;;;484457;246;1070;-39
2022/03/22 03:26:00;;;;;;;;;;;21.50;29.10;;;;;;484583;246;1177;-39
2022/03/22 03:28:01;;;;;;;;;;;21.50;29.10;;;;;;484472;246;1277;-39
2022/03/22 03:30:04;;;;;;;;;;;21.50;29.10;;;;;;484714;246;1054;-39
2022/03/22 03:32:04;;;;;;;;;;;21.50;29.10;;;;;;484150;246;2232;-39
2022/03/22 03:34:05;;;;;;;;;;;21.50;29.10;;;;;;484263;246;1078;-39
2022/03/22 03:36:06;;;;;;;;;;;21.50;29.10;;;;;;484650;246;1059;-39
2022/03/22 03:38:08;;;;;;;;;;;21.50;29.10;;;;;;484675;246;1068;-39
2022/03/22 03:40:09;;;;;;;;;;;21.50;29.10;;;;;;484371;246;2159;-39
2022/03/22 03:42:10;;;;;;;;;;;21.50;29.10;;;;;;484543;246;1517;-39
2022/03/22 03:48:50;;;;;;;;;;;21.50;29.10;;;;;;484225;246;1048;-39
2022/03/22 03:50:51;;;;;;;;;;;21.50;29.10;;;;;;484574;246;1361;-39
2022/03/22 03:52:53;;;;;;;;;;;21.50;29.10;;;;;;484237;246;1188;-39
2022/03/22 03:54:54;;;;;;;;;;;21.50;29.10;;;;;;484730;246;1072;-39
2022/03/22 03:56:55;;;;;;;;;;;21.50;29.10;;;;;;484184;246;1141;-39
2022/03/22 03:58:57;;;;;;;;;;;21.50;29.10;;;;;;484440;246;2200;-39
2022/03/22 04:00:58;;;;;;;;;;;21.50;29.10;;;;;;484440;246;2135;-39
2022/03/22 04:02:59;;;;;;;;;;;21.50;29.10;;;;;;484450;246;1050;-39
2022/03/22 04:05:01;;;;;;;;;;;21.50;29.10;;;;;;484713;246;1155;-39
2022/03/22 04:07:02;;;;;;;;;;;21.50;29.10;;;;;;484205;246;1082;-40
2022/03/22 04:09:03;;;;;;;;;;;21.50;29.10;;;;;;484742;246;1352;-39
2022/03/22 04:11:05;;;;;;;;;;;21.50;29.10;;;;;;484250;246;1070;-39
2022/03/22 04:13:06;;;;;;;;;;;21.50;29.10;;;;;;484656;245;1317;-39
2022/03/22 04:15:07;;;;;;;;;;;21.50;29.10;;;;;;484607;246;1040;-39
2022/03/22 04:17:09;;;;;;;;;;;21.50;29.20;;;;;;484347;246;1054;-39
2022/03/22 04:19:10;;;;;;;;;;;21.50;29.20;;;;;;484654;246;2113;-39
2022/03/22 04:21:11;;;;;;;;;;;21.50;29.10;;;;;;484523;246;992;-39
2022/03/22 04:23:13;;;;;;;;;;;21.50;29.10;;;;;;484706;246;1050;-39
2022/03/22 04:25:14;;;;;;;;;;;21.50;29.10;;;;;;484606;246;1075;-39
2022/03/22 04:34:17;;;;;;;;;;;21.50;29.10;;;;;;484208;246;1298;-39
2022/03/22 04:36:18;;;;;;;;;;;21.60;29.10;;;;;;484153;246;2391;-39
2022/03/22 04:38:19;;;;;;;;;;;21.50;29.10;;;;;;484230;246;1214;-39
2022/03/22 04:40:20;;;;;;;;;;;21.50;29.10;;;;;;484355;246;2124;-39
2022/03/22 04:42:21;;;;;;;;;;;21.50;29.10;;;;;;484657;246;1280;-39
2022/03/22 04:44:23;;;;;;;;;;;21.50;29.10;;;;;;484378;246;1192;-39
2022/03/22 04:46:24;;;;;;;;;;;21.50;29.10;;;;;;484663;246;1377;-39
2022/03/22 04:48:25;;;;;;;;;;;21.50;29.10;;;;;;484559;246;1141;-39
2022/03/22 04:50:27;;;;;;;;;;;21.50;29.10;;;;;;484479;246;1082;-39
2022/03/22 04:57:06;;;;;;;;;;;21.50;29.10;;;;;;484317;246;1111;-39
2022/03/22 04:59:08;;;;;;;;;;;21.50;29.10;;;;;;484533;246;2195;-39
2022/03/22 05:01:09;;;;;;;;;;;21.50;29.10;;;;;;484198;246;1383;-39
2022/03/22 05:03:10;;;;;;;;;;;21.60;29.10;;;;;;484253;246;967;-39
2022/03/22 05:05:12;;;;;;;;;;;21.50;29.10;;;;;;484667;246;1004;-39
2022/03/22 05:07:13;;;;;;;;;;;21.60;29.10;;;;;;484186;246;1342;-39
2022/03/22 05:09:14;;;;;;;;;;;21.50;29.10;;;;;;484586;246;1112;-39
2022/03/22 05:11:16;;;;;;;;;;;21.60;29.10;;;;;;484368;246;1318;-39
2022/03/22 05:13:17;;;;;;;;;;;21.60;29.10;;;;;;484622;246;1053;-39
2022/03/22 05:15:18;;;;;;;;;;;21.50;29.10;;;;;;484216;246;1090;-39
2022/03/22 05:17:23;;;;;;;;;;;21.60;29.10;;;;;;484599;246;1267;-39
2022/03/22 05:19:22;;;;;;;;;;;21.60;29.10;;;;;;484224;246;2260;-39
2022/03/22 05:21:25;;;;;;;;;;;21.50;29.10;;;;;;484057;246;1173;-39
2022/03/22 05:23:26;;;;;;;;;;;21.50;29.10;;;;;;484350;246;1010;-39
2022/03/22 05:25:30;;;;;;;;;;;21.50;29.10;;;;;;484611;246;1174;-39
2022/03/22 05:27:29;;;;;;;;;;;21.50;29.10;;;;;;484017;246;1667;-39
2022/03/22 05:29:32;;;;;;;;;;;21.50;29.10;;;;;;484419;246;1155;-39
2022/03/22 05:31:32;;;;;;;;;;;21.50;29.10;;;;;;484277;241;2208;-39
2022/03/22 05:33:33;;;;;;;;;;;21.50;29.10;;;;;;484176;246;1077;-39
2022/03/22 05:35:34;;;;;;;;;;;21.50;29.10;;;;;;484357;246;1052;-39
2022/03/22 05:37:36;;;;;;;;;;;21.50;29.10;;;;;;484330;246;1231;-39
2022/03/22 05:39:37;;;;;;;;;;;21.50;29.10;;;;;;484586;246;2120;-39
2022/03/22 05:41:39;;;;;;;;;;;21.50;29.10;;;;;;484337;246;1135;-39
2022/03/22 05:43:41;;;;;;;;;;;21.50;29.10;;;;;;484530;246;1052;-39
2022/03/22 05:45:41;;;;;;;;;;;21.50;29.10;;;;;;484084;246;2102;-39
2022/03/22 05:47:42;;;;;;;;;;;21.50;29.10;;;;;;484449;246;1058;-39
2022/03/22 05:49:44;;;;;;;;;;;21.50;29.10;;;;;;484034;246;1266;-39
2022/03/22 05:51:45;;;;;;;;;;;21.50;29.10;;;;;;483939;246;1135;-39
2022/03/22 05:53:46;;;;;;;;;;;21.50;29.10;;;;;;483874;246;1104;-39
2022/03/22 05:55:48;;;;;;;;;;;21.50;29.10;;;;;;483947;246;1033;-39
2022/03/22 05:57:49;;;;;;;;;;;21.50;29.10;;;;;;484214;246;1053;-39
2022/03/22 05:59:50;;;;;;;;;;;21.50;29.20;;;;;;484206;246;2155;-39
2022/03/22 06:01:52;;;;;;;;;;;21.50;29.10;;;;;;484232;245;1123;-39
2022/03/22 06:03:53;;;;;;;;;;;21.50;29.10;;;;;;484038;246;1129;-39
2022/03/22 06:05:54;;;;;;;;;;;21.50;29.10;;;;;;484119;246;1055;-39
2022/03/22 06:07:56;;;;;;;;;;;21.50;29.10;;;;;;484133;246;1391;-39
2022/03/22 06:09:57;;;;;;;;;;;21.50;29.10;;;;;;483940;246;1219;-39
2022/03/22 06:11:59;;;;;;;;;;;21.50;29.10;;;;;;483900;246;1388;-39
2022/03/22 06:14:00;;;;;;;;;;;21.50;29.10;;;;;;483915;246;1150;-39
2022/03/22 06:16:05;;;;;;;;;;;21.50;29.10;;;;;;483924;246;1139;-39
2022/03/22 06:18:03;;;;;;;;;;;21.50;29.10;;;;;;483965;246;1997;-39
2022/03/22 06:20:04;;;;;;;;;;;21.50;29.20;;;;;;484211;246;2125;-39
2022/03/22 06:22:05;;;;;;;;;;;21.50;29.10;;;;;;484365;245;1142;-39
2022/03/22 06:24:07;;;;;;;;;;;21.50;29.10;;;;;;483885;246;1088;-39
2022/03/22 06:26:08;;;;;;;;;;;21.50;29.10;;;;;;483870;246;1214;-39
2022/03/22 06:28:10;;;;;;;;;;;21.50;29.10;;;;;;484084;246;1120;-39
2022/03/22 06:30:11;;;;;;;;;;;21.40;29.10;;;;;;484083;246;1190;-39
2022/03/22 06:32:12;;;;;;;;;;;21.50;29.10;;;;;;483908;246;1276;-39
2022/03/22 06:34:14;;;;;;;;;;;21.50;29.10;;;;;;483844;246;1180;-39
2022/03/22 06:36:15;;;;;;;;;;;21.50;29.10;;;;;;483826;246;1244;-39
2022/03/22 06:38:16;;;;;;;;;;;21.50;29.10;;;;;;483687;246;1209;-39
2022/03/22 06:40:18;;;;;;;;;;;21.60;29.10;;;;;;483824;246;2112;-39
2022/03/22 06:42:20;;;;;;;;;;;21.50;29.10;;;;;;483662;246;1135;-39
2022/03/22 06:44:21;;;;;;;;;;;21.50;29.10;;;;;;483743;246;2204;-39
2022/03/22 06:46:23;;;;;;;;;;;21.60;29.10;;;;;;483676;246;1459;-39
2022/03/22 06:48:24;;;;;;;;;;;21.50;29.10;;;;;;483781;246;1110;-39
2022/03/22 06:50:25;;;;;;;;;;;21.50;29.00;;;;;;483821;246;1264;-39
2022/03/22 06:52:26;;;;;;;;;;;21.60;29.10;;;;;;483734;246;1069;-39
2022/03/22 06:54:28;;;;;;;;;;;21.60;29.10;;;;;;483703;246;1111;-40
2022/03/22 06:56:31;;;;;;;;;;;21.60;29.10;;;;;;483740;246;1124;-39
2022/03/22 06:58:31;;;;;;;;;;;21.50;29.00;;;;;;483643;246;2255;-39
2022/03/22 07:00:32;;;;;;;;;;;21.60;29.10;;;;;;483684;246;2431;-39
2022/03/22 07:02:35;;;;;;;;;;;21.50;29.00;;;;;;483570;246;1113;-39
2022/03/22 07:04:35;;;;;;;;;;;21.50;29.10;;;;;;483453;246;1895;-39
2022/03/22 07:06:36;;;;;;;;;;;21.50;29.10;;;;;;483494;246;1232;-39
2022/03/22 07:08:38;;;;;;;;;;;21.50;29.10;;;;;;483600;246;1119;-39
2022/03/22 07:10:39;;;;;;;;;;;21.50;29.10;;;;;;483753;246;1105;-40
2022/03/22 07:12:40;;;;;;;;;;;21.50;29.10;;;;;;483641;246;1162;-39
2022/03/22 07:14:42;;;;;;;;;;;21.50;29.10;;;;;;483706;246;1162;-39
2022/03/22 07:16:44;;;;;;;;;;;21.50;29.00;;;;;;483547;246;1206;-39
2022/03/22 07:18:44;;;;;;;;;;;21.50;29.00;;;;;;483902;246;2164;-39
2022/03/22 07:20:46;;;;;;;;;;;21.60;29.00;;;;;;483668;246;2117;-39
2022/03/22 07:22:47;;;;;;;;;;;21.60;29.00;;;;;;483865;246;1055;-39
2022/03/22 07:24:48;;;;;;;;;;;21.50;29.00;;;;;;483855;246;1161;-39
2022/03/22 07:26:50;;;;;;;;;;;21.50;29.00;;;;;;483853;246;1303;-39
2022/03/22 07:28:51;;;;;;;;;;;21.50;29.00;;;;;;483590;246;1163;-39
2022/03/22 07:30:52;;;;;;;;;;;21.60;29.00;;;;;;483725;246;1214;-39
2022/03/22 07:32:55;;;;;;;;;;;21.60;28.90;;;;;;483580;246;1122;-39
2022/03/22 07:35:00;;;;;;;;;;;21.60;28.90;;;;;;483272;246;1308;-39
2022/03/22 07:36:57;;;;;;;;;;;21.50;28.90;;;;;;483140;246;2041;-39
2022/03/22 07:39:00;;;;;;;;;;;21.60;28.90;;;;;;483442;246;1125;-39
2022/03/22 07:41:00;;;;;;;;;;;21.60;28.90;;;;;;483320;246;2117;-39
2022/03/22 07:43:01;;;;;;;;;;;21.60;28.90;;;;;;483466;246;1112;-39
2022/03/22 07:45:02;;;;;;;;;;;21.60;28.80;;;;;;483489;246;1157;-39
2022/03/22 07:47:04;;;;;;;;;;;21.50;28.80;;;;;;483389;246;1160;-39
2022/03/22 07:53:44;;;;;;;;;;;21.60;28.80;;;;;;483468;246;1138;-39
2022/03/22 07:55:45;;;;;;;;;;;21.60;28.80;;;;;;483511;246;1274;-39
2022/03/22 07:57:46;;;;;;;;;;;21.50;28.70;;;;;;483546;246;1214;-39
2022/03/22 07:59:48;;;;;;;;;;;21.60;28.70;;;;;;483332;246;1282;-39
2022/03/22 08:01:49;;;;;;;;;;;21.60;28.70;;;;;;483317;246;2121;-39
2022/03/22 08:03:50;;;;;;;;;;;21.60;28.70;;;;;;483429;246;1418;-39
2022/03/22 08:05:52;;;;;;;;;;;21.60;28.70;;;;;;483330;246;1461;-39
2022/03/22 08:07:54;;;;;;;;;;;21.60;28.70;;;;;;483296;246;1384;-39
2022/03/22 08:09:55;;;;;;;;;;;21.60;28.70;;;;;;483598;246;1155;-39
2022/03/22 08:11:56;;;;;;;;;;;21.60;28.70;;;;;;483468;246;1431;-39
2022/03/22 08:13:59;;;;;;;;;;;21.60;28.70;;;;;;483377;246;1100;-39
2022/03/22 08:15:59;;;;;;;;;;;21.60;28.70;;;;;;483030;246;1999;-39
2022/03/22 08:18:00;;;;;;;;;;;21.60;28.70;;;;;;483148;246;1288;-39
2022/03/22 08:20:02;;;;;;;;;;;21.60;28.60;;;;;;482672;246;1197;-39
2022/03/22 08:22:03;;;;;;;;;;;21.50;28.70;;;;;;483195;246;2199;-39
2022/03/22 08:24:04;;;;;;;;;;;21.60;28.60;;;;;;483268;246;1142;-40
2022/03/22 08:26:06;;;;;;;;;;;21.60;28.70;;;;;;483142;246;1334;-39
2022/03/22 08:28:07;;;;;;;;;;;21.60;28.60;;;;;;483301;246;1236;-39
2022/03/22 08:30:09;;;;;;;;;;;21.60;28.60;;;;;;483317;246;1245;-39
2022/03/22 08:32:10;;;;;;;;;;;21.60;28.60;;;;;;483202;246;2444;-39
2022/03/22 08:34:11;;;;;;;;;;;21.60;28.60;;;;;;483302;246;1161;-39
2022/03/22 08:36:12;;;;;;;;;;;21.60;28.60;;;;;;483088;246;1143;-39
2022/03/22 08:38:14;;;;;;;;;;;21.50;28.60;;;;;;483376;246;1096;-39
2022/03/22 08:40:15;;;;;;;;;;;21.50;28.60;;;;;;483528;246;1169;-39
2022/03/22 08:42:16;;;;;;;;;;;21.50;28.60;;;;;;483423;246;2196;-39
2022/03/22 08:44:18;;;;;;;;;;;21.50;28.50;;;;;;483313;246;1370;-39
2022/03/22 08:46:20;;;;;;;;;;;21.50;28.50;;;;;;483257;246;1271;-39
2022/03/22 08:48:21;;;;;;;;;;;21.50;28.50;;;;;;483329;246;1235;-39
2022/03/22 08:50:23;;;;;;;;;;;21.50;28.50;;;;;;483370;246;1108;-39
2022/03/22 08:52:24;;;;;;;;;;;21.60;28.50;;;;;;483350;246;1200;-39
2022/03/22 08:54:25;;;;;;;;;;;21.60;28.50;;;;;;483318;246;1145;-39
2022/03/22 08:56:26;;;;;;;;;;;21.50;28.50;;;;;;483130;246;1272;-39
2022/03/22 08:58:28;;;;;;;;;;;21.50;28.50;;;;;;483447;246;1090;-39
2022/03/22 09:00:29;;;;;;;;;;;21.50;28.50;;;;;;483318;246;2196;-39
2022/03/22 09:02:30;;;;;;;;;;;21.50;28.40;;;;;;483840;246;1208;-39
2022/03/22 09:06:51;;;;;;;;;;;21.50;28.40;;;;;;483381;246;1394;-39
2022/03/22 09:08:52;;;;;;;;;;;21.50;28.40;;;;;;483319;246;1193;-39
2022/03/22 09:10:54;;;;;;;;;;;21.50;28.40;;;;;;483277;246;1223;-39
2022/03/22 09:12:55;;;;;;;;;;;21.50;28.40;;;;;;483287;246;1236;-39
2022/03/22 09:14:57;;;;;;;;;;;21.50;28.40;;;;;;483305;246;1219;-39
2022/03/22 09:16:58;;;;;;;;;;;21.50;28.40;;;;;;483611;246;1191;-39
2022/03/22 09:18:59;;;;;;;;;;;21.60;28.40;;;;;;483237;246;1108;-39
2022/03/22 09:21:01;;;;;;;;;;;21.60;28.40;;;;;;483155;246;2120;-39
2022/03/22 09:23:02;;;;;;;;;;;21.60;28.40;;;;;;483333;246;2305;-39
2022/03/22 09:25:04;;;;;;;;;;;21.50;28.30;;;;;;483336;246;1086;-39
2022/03/22 09:27:05;;;;;;;;;;;21.50;28.30;;;;;;483358;246;1124;-39
2022/03/22 09:29:07;;;;;;;;;;;21.60;28.30;;;;;;483293;246;1095;-39
2022/03/22 09:31:08;;;;;;;;;;;21.50;28.30;;;;;;483329;246;2173;-39
2022/03/22 09:33:11;;;;;;;;;;;21.60;28.30;;;;;;483430;246;1292;-39
2022/03/22 09:35:11;;;;;;;;;;;21.60;28.30;;;;;;483094;246;2237;-39
2022/03/22 09:37:16;;;;;;;;;;;21.60;28.30;;;;;;483186;246;1212;-39
2022/03/22 09:39:13;;;;;;;;;;;21.60;28.30;;;;;;483138;246;2595;-39
2022/03/22 09:41:15;;;;;;;;;;;21.60;28.20;;;;;;483274;246;2188;-39
2022/03/22 09:43:16;;;;;;;;;;;21.60;28.20;;;;;;483354;246;1230;-39
2022/03/22 09:45:18;;;;;;;;;;;21.50;28.20;;;;;;483030;246;1118;-39
2022/03/22 09:47:19;;;;;;;;;;;21.60;28.20;;;;;;483268;246;1240;-39
2022/03/22 09:49:20;;;;;;;;;;;21.50;28.20;;;;;;483934;246;877;-39
2022/03/22 09:53:41;;;;;;;;;;;21.60;28.20;;;;;;483752;246;1273;-39
2022/03/22 09:55:42;;;;;;;;;;;21.50;28.20;;;;;;483340;246;1077;-39
2022/03/22 09:57:44;;;;;;;;;;;21.60;28.20;;;;;;483342;246;1096;-39
2022/03/22 09:59:45;;;;;;;;;;;21.50;28.10;;;;;;483295;246;1188;-39
2022/03/22 10:01:46;;;;;;;;;;;21.50;28.20;;;;;;483171;246;2192;-39
2022/03/22 10:03:47;;;;;;;;;;;21.50;28.10;;;;;;483279;246;1385;-39
2022/03/22 10:05:49;;;;;;;;;;;21.50;28.10;;;;;;483166;246;1253;-39
2022/03/22 10:07:50;;;;;;;;;;;21.50;28.10;;;;;;483130;246;1459;-39
2022/03/22 10:09:51;;;;;;;;;;;21.50;28.10;;;;;;483406;246;1098;-39
2022/03/22 10:11:53;;;;;;;;;;;21.50;28.10;;;;;;483372;246;1366;-39
2022/03/22 10:13:54;;;;;;;;;;;21.50;28.10;;;;;;483343;246;1097;-39
2022/03/22 10:15:55;;;;;;;;;;;21.50;28.10;;;;;;483312;246;1335;-39
2022/03/22 10:17:58;;;;;;;;;;;21.60;28.10;;;;;;483367;246;1350;-39
2022/03/22 10:19:59;;;;;;;;;;;21.50;28.10;;;;;;483366;246;2048;-39
2022/03/22 10:22:00;;;;;;;;;;;21.60;28.10;;;;;;483359;246;2172;-40
2022/03/22 10:24:02;;;;;;;;;;;21.60;28.10;;;;;;483361;246;1094;-39
2022/03/22 10:26:02;;;;;;;;;;;21.50;28.10;;;;;;483269;246;2058;-39
2022/03/22 10:28:04;;;;;;;;;;;21.50;28.00;;;;;;483348;246;1076;-39
2022/03/22 10:30:05;;;;;;;;;;;21.50;28.10;;;;;;483168;246;1138;-39
2022/03/22 10:32:06;;;;;;;;;;;21.50;28.00;;;;;;483090;246;1117;-39
2022/03/22 10:34:08;;;;;;;;;;;21.50;28.00;;;;;;483604;246;1297;-39
2022/03/22 10:36:09;;;;;;;;;;;21.50;28.00;;;;;;483461;246;1131;-39
2022/03/22 10:38:10;;;;;;;;;;;21.50;28.10;;;;;;483377;246;1415;-39
2022/03/22 10:40:12;;;;;;;;;;;21.50;28.10;;;;;;483206;246;1215;-39
2022/03/22 10:42:13;;;;;;;;;;;21.50;28.00;;;;;;484069;246;2195;-39
2022/03/22 10:44:15;;;;;;;;;;;21.50;28.00;;;;;;483365;246;1096;-39
2022/03/22 10:46:16;;;;;;;;;;;21.50;28.00;;;;;;483313;246;1099;-39
2022/03/22 10:48:17;;;;;;;;;;;21.50;28.00;;;;;;483385;246;1208;-39
2022/03/22 10:50:18;;;;;;;;;;;21.50;28.00;;;;;;483458;246;1105;-39
2022/03/22 10:52:21;;;;;;;;;;;21.50;28.10;;;;;;483356;246;1077;-39
2022/03/22 10:54:23;;;;;;;;;;;21.50;28.00;;;;;;483231;246;1128;-39
2022/03/22 10:56:24;;;;;;;;;;;21.50;28.00;;;;;;483276;246;1118;-39
2022/03/22 10:58:25;;;;;;;;;;;21.50;28.00;;;;;;483400;246;1221;-39
2022/03/22 11:00:27;;;;;;;;;;;21.50;28.00;;;;;;483399;246;1192;-39
2022/03/22 11:02:31;;;;;;;;;;;21.50;28.00;;;;;;483418;246;2183;-39
2022/03/22 11:04:31;;;;;;;;;;;21.50;28.00;;;;;;483095;246;1323;-39
2022/03/22 11:06:31;;;;;;;;;;;21.50;28.00;;;;;;483147;246;1549;-39
2022/03/22 11:08:32;;;;;;;;;;;21.50;28.00;;;;;;483377;246;1183;-39
2022/03/22 11:10:34;;;;;;;;;;;21.50;28.00;;;;;;483390;246;1145;-39
2022/03/22 11:12:37;;;;;;;;;;;21.50;27.90;;;;;;483390;246;1191;-39
2022/03/22 11:14:37;;;;;;;;;;;21.50;27.90;;;;;;483449;246;1692;-39
2022/03/22 11:16:38;;;;;;;;;;;21.50;27.90;;;;;;483579;246;1244;-40
2022/03/22 11:18:39;;;;;;;;;;;21.50;27.90;;;;;;483376;246;1213;-39
2022/03/22 11:20:41;;;;;;;;;;;21.50;27.90;;;;;;483233;246;1237;-39
2022/03/22 11:22:42;;;;;;;;;;;21.50;27.90;;;;;;483210;246;2196;-39
2022/03/22 11:24:43;;;;;;;;;;;21.50;27.90;;;;;;483394;246;1113;-39
2022/03/22 11:26:45;;;;;;;;;;;21.50;27.90;;;;;;483300;246;1259;-39
2022/03/22 11:28:46;;;;;;;;;;;21.50;27.90;;;;;;483442;246;1050;-39
2022/03/22 11:30:47;;;;;;;;;;;21.50;27.90;;;;;;483561;246;1215;-39
2022/03/22 11:35:08;;;;;;;;;;;21.50;28.00;;;;;;483434;246;1192;-39
2022/03/22 11:37:09;;;;;;;;;;;21.50;27.90;;;;;;483546;246;1214;-39
2022/03/22 11:39:11;;;;;;;;;;;21.50;27.90;;;;;;483406;246;1144;-39
2022/03/22 11:43:31;;;;;;;;;;;21.50;27.90;;;;;;483178;246;1102;-39
2022/03/22 11:45:33;;;;;;;;;;;21.50;27.90;;;;;;483512;246;1084;-39
2022/03/22 11:47:34;;;;;;;;;;;21.50;27.80;;;;;;483261;246;1293;-39
2022/03/22 11:49:35;;;;;;;;;;;21.50;27.90;;;;;;483223;246;1226;-39
2022/03/22 11:51:37;;;;;;;;;;;21.50;27.90;;;;;;483198;246;1262;-39
2022/03/22 11:53:38;;;;;;;;;;;21.50;27.90;;;;;;483229;246;1052;-39
2022/03/22 11:55:39;;;;;;;;;;;21.50;27.90;;;;;;483324;246;1235;-39
2022/03/22 11:57:41;;;;;;;;;;;21.50;27.90;;;;;;483269;246;1116;-39
2022/03/22 11:59:42;;;;;;;;;;;21.50;27.90;;;;;;483363;246;1172;-39
2022/03/22 12:01:43;;;;;;;;;;;21.50;27.90;;;;;;483294;246;2137;-39
2022/03/22 12:03:45;;;;;;;;;;;21.50;27.90;;;;;;483485;246;1491;-39
2022/03/22 12:05:46;;;;;;;;;;;21.50;27.90;;;;;;483315;246;1426;-39
2022/03/22 12:07:47;;;;;;;;;;;21.50;27.80;;;;;;483545;246;1163;-39
2022/03/22 12:09:49;;;;;;;;;;;21.50;27.80;;;;;;483558;246;1071;-39
2022/03/22 12:11:50;;;;;;;;;;;21.50;27.80;;;;;;483271;246;1237;-39
2022/03/22 12:13:51;;;;;;;;;;;21.50;27.80;;;;;;483573;246;1116;-39
2022/03/22 12:15:53;;;;;;;;;;;21.50;27.90;;;;;;483444;246;1213;-39
2022/03/22 12:17:54;;;;;;;;;;;21.50;27.90;;;;;;483398;246;1216;-39
2022/03/22 12:19:55;;;;;;;;;;;21.50;27.90;;;;;;483281;246;1163;-39
2022/03/22 12:21:57;;;;;;;;;;;21.50;27.90;;;;;;483405;246;2203;-39
2022/03/22 12:23:58;;;;;;;;;;;21.50;27.90;;;;;;483643;246;2653;-39
2022/03/22 12:26:01;;;;;;;;;;;21.50;27.80;;;;;;483422;246;1227;-39
2022/03/22 12:28:01;;;;;;;;;;;21.50;27.80;;;;;;483572;246;1966;-39
2022/03/22 12:30:02;;;;;;;;;;;21.50;27.80;;;;;;483291;246;1146;-39
2022/03/22 12:32:07;;;;;;;;;;;21.50;27.80;;;;;;483451;246;1230;-39
2022/03/22 12:34:08;;;;;;;;;;;21.50;27.80;;;;;;483363;246;1229;-39
2022/03/22 12:36:09;;;;;;;;;;;21.50;27.80;;;;;;483133;246;1769;-39